createdAt,value
2018-08-27T00:01:50.586Z,12.90
2018-08-27T00:04:19.392Z,12.80
2018-08-27T00:06:48.034Z,12.80
2018-08-27T00:09:16.933Z,12.80
2018-08-27T00:11:45.653Z,12.80
2018-08-27T00:14:14.653Z,12.80
2018-08-27T00:16:43.350Z,12.70
2018-08-27T00:19:12.319Z,12.70
2018-08-27T00:21:40.905Z,12.80
2018-08-27T00:24:09.387Z,12.80
2018-08-27T00:26:38.491Z,12.80
2018-08-27T00:29:07.330Z,12.90
2018-08-27T00:31:36.037Z,12.80
2018-08-27T00:34:05.216Z,12.90
2018-08-27T00:36:34.025Z,13.00
2018-08-27T00:39:02.942Z,13.00
2018-08-27T00:41:31.542Z,13.00
2018-08-27T00:44:00.638Z,13.10
2018-08-27T00:46:29.534Z,13.20
2018-08-27T00:48:58.260Z,13.20
2018-08-27T00:51:27.131Z,13.20
2018-08-27T00:53:55.802Z,13.20
2018-08-27T00:56:24.662Z,13.20
2018-08-27T00:58:53.387Z,13.30
2018-08-27T01:01:22.496Z,13.20
2018-08-27T01:03:51.317Z,13.10
2018-08-27T01:06:20.097Z,13.20
2018-08-27T01:08:48.558Z,13.20
2018-08-27T01:11:17.061Z,13.20
2018-08-27T01:13:45.578Z,13.20
2018-08-27T01:16:14.193Z,13.20
2018-08-27T01:18:42.903Z,13.20
2018-08-27T01:21:11.862Z,13.40
2018-08-27T01:23:40.406Z,13.40
2018-08-27T01:26:09.115Z,13.40
2018-08-27T01:28:37.626Z,13.40
2018-08-27T01:31:06.214Z,13.40
2018-08-27T01:33:35.302Z,13.40
2018-08-27T02:33:14.243Z,13.40
2018-08-27T02:35:42.749Z,13.80
2018-08-27T02:38:11.574Z,13.70
2018-08-27T02:40:40.075Z,13.60
2018-08-27T02:43:09.367Z,13.50
2018-08-27T02:45:38.126Z,13.50
2018-08-27T02:48:06.719Z,13.50
2018-08-27T02:50:35.404Z,13.40
2018-08-27T02:53:03.972Z,13.40
2018-08-27T02:55:32.567Z,13.40
2018-08-27T02:58:00.987Z,13.30
2018-08-27T03:00:30.373Z,13.30
2018-08-27T03:02:58.869Z,13.30
2018-08-27T03:05:27.638Z,13.30
2018-08-27T03:07:56.226Z,13.30
2018-08-27T03:10:24.715Z,13.30
2018-08-27T03:12:53.219Z,13.30
2018-08-27T03:15:25.733Z,13.20
2018-08-27T03:17:54.437Z,13.10
2018-08-27T03:20:22.902Z,13.20
2018-08-27T03:22:51.808Z,13.20
2018-08-27T03:25:20.426Z,13.20
2018-08-27T03:27:49.107Z,13.20
2018-08-27T03:30:18.252Z,13.20
2018-08-27T03:32:46.789Z,13.20
2018-08-27T03:35:15.550Z,13.30
2018-08-27T03:37:44.422Z,13.30
2018-08-27T03:40:12.893Z,13.30
2018-08-27T03:42:41.361Z,13.30
2018-08-27T03:45:10.303Z,13.40
2018-08-27T03:47:38.993Z,13.40
2018-08-27T03:50:07.662Z,13.40
2018-08-27T03:52:36.216Z,13.50
2018-08-27T03:55:05.054Z,13.40
2018-08-27T03:57:33.591Z,13.40
2018-08-27T04:00:02.184Z,13.50
2018-08-27T04:02:30.726Z,13.50
2018-08-27T04:04:59.611Z,13.50
2018-08-27T04:07:28.171Z,13.50
2018-08-27T04:09:56.766Z,13.50
2018-08-27T04:12:25.278Z,13.40
2018-08-27T04:14:53.733Z,13.50
2018-08-27T04:17:30.643Z,13.50
2018-08-27T04:19:59.937Z,13.50
2018-08-27T04:22:28.621Z,13.40
2018-08-27T04:25:07.173Z,13.40
2018-08-27T04:27:35.694Z,13.40
2018-08-27T04:30:04.269Z,13.50
2018-08-27T04:32:32.722Z,13.40
2018-08-27T04:35:01.287Z,13.50
2018-08-27T04:37:29.694Z,13.60
2018-08-27T04:39:58.379Z,13.50
2018-08-27T04:42:26.911Z,13.60
2018-08-27T04:44:55.464Z,13.70
2018-08-27T04:47:23.999Z,13.70
2018-08-27T04:49:52.643Z,13.80
2018-08-27T04:52:21.057Z,13.80
2018-08-27T04:54:49.496Z,13.80
2018-08-27T04:57:18.036Z,13.80
2018-08-27T04:59:51.587Z,13.90
2018-08-27T05:02:20.088Z,13.90
2018-08-27T05:04:48.502Z,13.90
2018-08-27T05:07:17.090Z,13.90
2018-08-27T05:09:45.790Z,13.90
2018-08-27T05:12:14.265Z,14.10
2018-08-27T05:14:42.746Z,14.10
2018-08-27T05:17:11.158Z,14.20
2018-08-27T05:19:39.703Z,14.30
2018-08-27T05:22:08.151Z,14.50
2018-08-27T05:24:36.541Z,14.50
2018-08-27T05:27:06.214Z,14.60
2018-08-27T05:29:34.605Z,14.70
2018-08-27T05:32:03.026Z,14.80
2018-08-27T05:34:31.467Z,15.00
2018-08-27T05:37:00.151Z,15.30
2018-08-27T05:39:28.769Z,15.40
2018-08-27T05:41:57.184Z,15.70
2018-08-27T05:44:26.997Z,15.90
2018-08-27T05:46:55.471Z,15.80
2018-08-27T05:49:23.949Z,15.70
2018-08-27T05:51:52.366Z,15.60
2018-08-27T05:54:20.786Z,15.50
2018-08-27T05:56:49.233Z,15.40
2018-08-27T05:59:22.269Z,15.50
2018-08-27T06:01:51.054Z,15.50
2018-08-27T06:04:19.462Z,15.30
2018-08-27T06:06:48.128Z,15.40
2018-08-27T06:09:16.633Z,15.40
2018-08-27T06:11:44.989Z,15.50
2018-08-27T06:14:13.722Z,15.60
2018-08-27T06:16:42.305Z,15.70
2018-08-27T06:19:12.047Z,15.80
2018-08-27T06:21:46.149Z,15.90
2018-08-27T06:27:10.192Z,16.20
2018-08-27T06:29:39.287Z,16.30
2018-08-27T06:32:07.915Z,16.50
2018-08-27T06:34:36.373Z,16.70
2018-08-27T06:37:04.882Z,16.90
2018-08-27T06:39:33.752Z,17.00
2018-08-27T06:42:02.654Z,16.90
2018-08-27T06:44:31.186Z,17.00
2018-08-27T06:46:59.903Z,16.90
2018-08-27T06:49:28.761Z,17.00
2018-08-27T06:51:57.213Z,16.90
2018-08-27T06:54:25.876Z,16.80
2018-08-27T06:56:54.434Z,17.00
2018-08-27T06:59:22.906Z,17.20
2018-08-27T07:01:51.345Z,17.60
2018-08-27T07:04:19.978Z,17.80
2018-08-27T07:06:48.471Z,18.00
2018-08-27T07:09:17.296Z,18.10
2018-08-27T07:11:46.182Z,18.00
2018-08-27T07:14:14.718Z,17.90
2018-08-27T07:16:43.442Z,17.90
2018-08-27T07:19:12.139Z,17.90
2018-08-27T07:21:40.834Z,17.80
2018-08-27T07:24:09.362Z,17.70
2018-08-27T07:26:38.021Z,17.70
2018-08-27T07:29:07.085Z,17.70
2018-08-27T07:31:35.577Z,17.80
2018-08-27T07:34:04.091Z,17.90
2018-08-27T07:36:32.646Z,18.00
2018-08-27T07:39:01.033Z,18.00
2018-08-27T07:41:29.842Z,17.80
2018-08-27T07:43:58.297Z,18.00
2018-08-27T07:46:26.778Z,18.10
2018-08-27T07:48:55.210Z,18.10
2018-08-27T07:51:23.746Z,18.10
2018-08-27T07:53:52.299Z,18.40
2018-08-27T07:56:21.246Z,18.50
2018-08-27T07:58:49.700Z,18.50
2018-08-27T08:01:18.110Z,18.50
2018-08-27T08:03:46.573Z,18.40
2018-08-27T08:06:15.292Z,18.40
2018-08-27T08:08:43.722Z,18.50
2018-08-27T08:11:12.303Z,18.60
2018-08-27T08:13:40.756Z,18.80
2018-08-27T08:16:09.202Z,18.90
2018-08-27T08:18:37.642Z,18.90
2018-08-27T08:21:06.273Z,18.80
2018-08-27T08:23:34.766Z,18.50
2018-08-27T08:26:03.275Z,18.30
2018-08-27T08:28:31.742Z,18.00
2018-08-27T08:31:00.532Z,18.00
2018-08-27T08:33:28.998Z,18.10
2018-08-27T08:35:57.467Z,18.20
2018-08-27T08:38:25.929Z,18.50
2018-08-27T08:40:54.390Z,18.80
2018-08-27T08:43:22.909Z,19.00
2018-08-27T08:45:51.394Z,19.30
2018-08-27T08:48:19.793Z,19.50
2018-08-27T08:50:48.225Z,19.80
2018-08-27T08:53:16.711Z,19.90
2018-08-27T08:55:45.086Z,20.10
2018-08-27T08:58:13.531Z,20.00
2018-08-27T09:00:41.947Z,19.80
2018-08-27T09:03:10.377Z,19.70
2018-08-27T09:05:38.847Z,19.50
2018-08-27T09:08:07.454Z,19.20
2018-08-27T09:10:36.402Z,18.90
2018-08-27T09:13:04.893Z,18.90
2018-08-27T09:15:33.452Z,18.80
2018-08-27T09:18:01.979Z,18.80
2018-08-27T09:20:30.640Z,18.40
2018-08-27T09:22:59.068Z,18.30
2018-08-27T09:25:27.490Z,18.20
2018-08-27T09:27:55.926Z,18.20
2018-08-27T09:30:24.321Z,18.40
2018-08-27T09:32:52.710Z,18.30
2018-08-27T09:35:21.997Z,18.50
2018-08-27T09:37:50.965Z,18.80
2018-08-27T09:40:19.834Z,19.00
2018-08-27T09:42:48.236Z,19.20
2018-08-27T09:45:16.660Z,19.30
2018-08-27T09:47:45.058Z,19.40
2018-08-27T09:50:13.450Z,19.50
2018-08-27T09:52:41.951Z,19.50
2018-08-27T09:55:10.322Z,19.40
2018-08-27T09:57:38.953Z,19.50
2018-08-27T10:00:07.986Z,19.50
2018-08-27T10:02:36.396Z,19.60
2018-08-27T10:05:05.013Z,19.70
2018-08-27T10:07:33.393Z,19.70
2018-08-27T10:10:01.805Z,19.80
2018-08-27T10:12:30.202Z,19.90
2018-08-27T10:14:58.654Z,20.10
2018-08-27T10:17:27.027Z,20.40
2018-08-27T10:19:55.668Z,20.70
2018-08-27T10:22:24.149Z,21.00
2018-08-27T10:24:53.023Z,21.30
2018-08-27T10:27:21.448Z,21.50
2018-08-27T10:29:49.898Z,21.70
2018-08-27T10:32:18.275Z,21.80
2018-08-27T10:34:46.917Z,21.80
2018-08-27T10:37:15.330Z,21.70
2018-08-27T10:39:43.805Z,21.60
2018-08-27T10:42:12.757Z,21.80
2018-08-27T10:44:41.146Z,21.90
2018-08-27T10:47:09.625Z,22.10
2018-08-27T10:49:39.053Z,21.90
2018-08-27T10:52:07.498Z,22.00
2018-08-27T10:54:35.902Z,22.00
2018-08-27T10:57:04.317Z,22.00
2018-08-27T10:59:32.789Z,21.90
2018-08-27T11:02:01.497Z,22.10
2018-08-27T11:04:29.943Z,22.00
2018-08-27T11:06:58.420Z,21.90
2018-08-27T11:09:26.818Z,21.90
2018-08-27T11:11:55.258Z,21.90
2018-08-27T11:14:23.645Z,21.90
2018-08-27T11:16:52.331Z,22.00
2018-08-27T11:19:20.971Z,22.20
2018-08-27T11:21:49.370Z,22.40
2018-08-27T11:24:21.854Z,22.30
2018-08-27T11:26:50.514Z,22.60
2018-08-27T11:29:19.838Z,22.70
2018-08-27T11:31:48.914Z,22.70
2018-08-27T11:34:17.370Z,22.60
2018-08-27T11:36:45.782Z,22.60
2018-08-27T11:39:15.073Z,22.80
2018-08-27T11:41:44.002Z,23.00
2018-08-27T11:44:12.742Z,23.00
2018-08-27T11:46:41.193Z,23.10
2018-08-27T11:49:09.589Z,23.20
2018-08-27T11:51:38.001Z,23.00
2018-08-27T11:54:06.699Z,22.80
2018-08-27T11:56:35.101Z,22.80
2018-08-27T11:59:03.785Z,22.70
2018-08-27T12:01:32.281Z,23.00
2018-08-27T12:04:00.699Z,23.40
2018-08-27T12:06:29.857Z,23.60
2018-08-27T12:08:58.378Z,23.40
2018-08-27T12:11:26.997Z,23.10
2018-08-27T12:13:55.677Z,23.00
2018-08-27T12:16:24.122Z,22.70
2018-08-27T12:18:52.541Z,22.50
2018-08-27T12:21:20.974Z,22.30
2018-08-27T12:23:49.430Z,21.90
2018-08-27T12:26:17.789Z,22.10
2018-08-27T12:28:46.233Z,22.30
2018-08-27T12:31:14.700Z,22.60
2018-08-27T12:33:43.145Z,23.00
2018-08-27T12:36:11.848Z,23.30
2018-08-27T12:38:40.346Z,23.20
2018-08-27T12:41:08.914Z,23.20
2018-08-27T12:43:38.087Z,23.10
2018-08-27T12:46:06.526Z,23.10
2018-08-27T12:48:35.038Z,23.30
2018-08-27T12:51:03.537Z,23.30
2018-08-27T12:53:31.978Z,23.20
2018-08-27T12:56:00.395Z,23.20
2018-08-27T12:58:29.328Z,22.90
2018-08-27T13:00:57.744Z,22.90
2018-08-27T13:03:26.210Z,23.00
2018-08-27T13:05:55.194Z,23.00
2018-08-27T13:08:23.637Z,23.10
2018-08-27T13:10:53.986Z,22.90
2018-08-27T13:13:31.851Z,23.00
2018-08-27T13:16:00.333Z,23.20
2018-08-27T13:18:28.736Z,23.30
2018-08-27T13:20:57.184Z,23.30
2018-08-27T13:23:25.606Z,23.50
2018-08-27T13:25:54.066Z,23.20
2018-08-27T13:28:22.478Z,23.10
2018-08-27T13:30:50.949Z,23.40
2018-08-27T13:33:19.386Z,23.60
2018-08-27T13:35:47.843Z,23.20
2018-08-27T13:38:16.253Z,23.00
2018-08-27T13:40:44.699Z,23.00
2018-08-27T13:43:13.138Z,22.70
2018-08-27T13:45:41.573Z,22.80
2018-08-27T13:48:10.047Z,23.10
2018-08-27T13:50:38.999Z,23.20
2018-08-27T13:53:07.565Z,23.30
2018-08-27T13:55:35.997Z,23.60
2018-08-27T13:58:04.422Z,23.60
2018-08-27T14:00:32.859Z,23.70
2018-08-27T14:03:01.419Z,23.50
2018-08-27T14:05:29.844Z,23.50
2018-08-27T14:07:58.277Z,23.20
2018-08-27T14:10:26.713Z,23.00
2018-08-27T14:12:55.142Z,22.80
2018-08-27T14:15:23.878Z,22.40
2018-08-27T14:17:52.207Z,22.30
2018-08-27T14:20:21.957Z,22.40
2018-08-27T14:22:50.493Z,22.50
2018-08-27T14:25:18.970Z,22.70
2018-08-27T14:27:47.391Z,22.80
2018-08-27T14:30:16.029Z,22.90
2018-08-27T14:32:44.589Z,22.70
2018-08-27T14:35:12.978Z,22.90
2018-08-27T14:37:41.459Z,22.90
2018-08-27T14:40:10.258Z,23.00
2018-08-27T14:42:38.755Z,23.00
2018-08-27T14:45:07.744Z,23.00
2018-08-27T14:47:36.111Z,22.90
2018-08-27T14:50:04.656Z,23.10
2018-08-27T14:52:33.075Z,23.10
2018-08-27T14:55:01.787Z,22.90
2018-08-27T14:57:30.222Z,23.00
2018-08-27T15:00:00.786Z,23.00
2018-08-27T15:02:29.216Z,23.10
2018-08-27T15:04:57.922Z,23.10
2018-08-27T15:07:26.389Z,23.00
2018-08-27T15:09:54.810Z,23.00
2018-08-27T15:12:23.265Z,22.80
2018-08-27T15:14:51.688Z,22.90
2018-08-27T15:17:20.113Z,22.90
2018-08-27T15:19:48.553Z,22.90
2018-08-27T15:22:17.001Z,23.00
2018-08-27T15:24:45.434Z,23.10
2018-08-27T15:27:13.849Z,23.10
2018-08-27T15:29:42.353Z,23.20
2018-08-27T15:32:11.261Z,23.20
2018-08-27T15:34:39.878Z,23.00
2018-08-27T15:37:08.294Z,22.90
2018-08-27T15:39:36.718Z,22.80
2018-08-27T15:42:05.383Z,22.70
2018-08-27T15:44:33.901Z,22.50
2018-08-27T15:47:02.765Z,22.40
2018-08-27T15:49:31.170Z,22.40
2018-08-27T15:51:59.585Z,22.20
2018-08-27T15:54:28.067Z,22.30
2018-08-27T15:56:56.697Z,22.30
2018-08-27T15:59:25.119Z,22.30
2018-08-27T16:01:53.562Z,22.30
2018-08-27T16:04:22.010Z,22.30
2018-08-27T16:06:50.454Z,22.30
2018-08-27T16:09:18.894Z,22.10
2018-08-27T16:11:47.457Z,22.00
2018-08-27T16:14:15.890Z,21.90
2018-08-27T16:16:44.318Z,21.80
2018-08-27T16:19:12.758Z,21.70
2018-08-27T16:21:41.169Z,21.60
2018-08-27T16:24:09.597Z,21.60
2018-08-27T16:26:40.697Z,21.60
2018-08-27T16:29:09.544Z,21.60
2018-08-27T16:31:37.949Z,21.50
2018-08-27T16:34:06.371Z,21.50
2018-08-27T16:36:35.064Z,21.50
2018-08-27T16:39:04.779Z,21.40
2018-08-27T16:41:33.674Z,21.40
2018-08-27T16:44:02.258Z,21.30
2018-08-27T16:46:30.880Z,21.20
2018-08-27T16:48:59.311Z,21.00
2018-08-27T16:51:27.721Z,21.10
2018-08-27T16:53:56.144Z,21.00
2018-08-27T16:56:24.530Z,21.00
2018-08-27T16:58:52.928Z,20.90
2018-08-27T17:01:21.334Z,20.90
2018-08-27T17:03:49.770Z,20.90
2018-08-27T17:06:18.153Z,20.90
2018-08-27T17:08:46.541Z,20.80
2018-08-27T17:11:14.966Z,20.80
2018-08-27T17:13:43.366Z,20.90
2018-08-27T17:16:11.780Z,21.00
2018-08-27T17:18:40.184Z,21.00
2018-08-27T17:21:08.622Z,20.90
2018-08-27T17:23:37.034Z,20.90
2018-08-27T17:26:05.445Z,20.70
2018-08-27T17:28:33.879Z,20.60
2018-08-27T17:31:02.309Z,20.50
2018-08-27T17:33:30.894Z,20.40
2018-08-27T17:35:59.297Z,20.40
2018-08-27T17:38:27.964Z,20.30
2018-08-27T17:40:56.454Z,20.20
2018-08-27T17:43:24.957Z,20.20
2018-08-27T17:45:53.421Z,20.10
2018-08-27T17:48:21.838Z,20.00
2018-08-27T17:50:50.277Z,19.90
2018-08-27T17:53:18.656Z,19.90
2018-08-27T17:55:48.097Z,19.90
2018-08-27T17:58:16.624Z,19.70
2018-08-27T18:00:44.953Z,19.70
2018-08-27T18:03:13.461Z,19.70
2018-08-27T18:05:41.893Z,19.70
2018-08-27T18:08:10.318Z,19.60
2018-08-27T18:10:38.726Z,19.50
2018-08-27T18:13:07.130Z,19.50
2018-08-27T18:15:35.563Z,19.50
2018-08-27T18:18:03.971Z,19.40
2018-08-27T18:20:32.385Z,19.40
2018-08-27T18:23:00.885Z,19.40
2018-08-27T18:25:29.373Z,19.30
2018-08-27T18:27:57.804Z,19.30
2018-08-27T18:30:27.738Z,19.30
2018-08-27T18:32:56.324Z,19.30
2018-08-27T18:35:24.947Z,19.30
2018-08-27T18:37:53.424Z,19.30
2018-08-27T18:40:21.865Z,19.30
2018-08-27T18:42:50.492Z,19.20
2018-08-27T18:45:22.258Z,19.20
2018-08-27T18:47:50.882Z,19.20
2018-08-27T18:50:19.534Z,19.10
2018-08-27T18:52:48.613Z,19.10
2018-08-27T18:55:17.591Z,19.10
2018-08-27T18:57:46.404Z,19.00
2018-08-27T19:00:15.176Z,19.00
2018-08-27T19:02:43.806Z,19.00
2018-08-27T19:05:12.518Z,18.90
2018-08-27T19:07:41.087Z,18.90
2018-08-27T19:10:09.627Z,18.90
2018-08-27T19:12:38.239Z,18.80
2018-08-27T19:15:06.921Z,18.80
2018-08-27T19:17:35.523Z,18.70
2018-08-27T19:20:04.148Z,18.60
2018-08-27T19:22:32.664Z,18.60
2018-08-27T19:25:01.190Z,18.50
2018-08-27T19:27:29.792Z,18.50
2018-08-27T19:29:58.542Z,18.40
2018-08-27T19:32:27.109Z,18.30
2018-08-27T19:34:55.670Z,18.20
2018-08-27T19:37:24.319Z,18.10
2018-08-27T19:39:52.885Z,18.10
2018-08-27T19:42:21.518Z,17.90
2018-08-27T19:44:50.063Z,17.90
2018-08-27T19:47:18.786Z,17.80
2018-08-27T19:49:47.365Z,17.70
2018-08-27T19:52:15.965Z,17.70
2018-08-27T19:54:44.570Z,17.60
2018-08-27T19:57:13.117Z,17.50
2018-08-27T19:59:41.526Z,17.50
2018-08-27T20:02:09.974Z,17.40
2018-08-27T20:04:38.480Z,17.40
2018-08-27T20:07:06.885Z,17.30
2018-08-27T20:09:35.384Z,17.30
2018-08-27T20:12:03.886Z,17.30
2018-08-27T20:14:32.392Z,17.30
2018-08-27T20:17:00.903Z,17.20
2018-08-27T20:19:29.378Z,17.20
2018-08-27T20:21:57.834Z,17.20
2018-08-27T20:24:26.400Z,17.20
2018-08-27T20:26:54.967Z,17.20
2018-08-27T20:29:23.444Z,17.20
2018-08-27T20:31:51.906Z,17.10
2018-08-27T20:34:20.339Z,17.10
2018-08-27T20:36:48.791Z,17.00
2018-08-27T20:39:17.377Z,16.90
2018-08-27T20:41:45.791Z,16.90
2018-08-27T20:44:14.282Z,16.80
2018-08-27T20:46:42.709Z,16.80
2018-08-27T20:49:11.365Z,16.80
2018-08-27T20:51:39.854Z,16.70
2018-08-27T20:54:08.327Z,16.70
2018-08-27T20:56:36.789Z,16.70
2018-08-27T20:59:05.298Z,16.70
2018-08-27T21:01:33.722Z,16.70
2018-08-27T21:04:02.189Z,16.70
2018-08-27T21:06:30.654Z,16.70
2018-08-27T21:08:59.144Z,16.70
2018-08-27T21:11:27.858Z,16.80
2018-08-27T21:14:02.407Z,16.80
2018-08-27T21:16:30.827Z,16.90
2018-08-27T21:18:59.505Z,16.90
2018-08-27T21:21:27.951Z,17.00
2018-08-27T21:23:56.432Z,17.00
2018-08-27T21:26:24.865Z,17.00
2018-08-27T21:28:53.264Z,17.00
2018-08-27T21:31:21.760Z,17.00
2018-08-27T21:33:50.114Z,17.00
2018-08-27T21:36:18.534Z,16.90
2018-08-27T21:38:46.977Z,16.90
2018-08-27T21:41:15.392Z,16.80
2018-08-27T21:43:44.085Z,16.70
2018-08-27T21:46:12.506Z,16.70
2018-08-27T21:48:40.941Z,16.70
2018-08-27T21:51:09.351Z,16.60
2018-08-27T21:53:37.776Z,16.60
2018-08-27T21:56:06.218Z,16.50
2018-08-27T21:58:34.632Z,16.60
2018-08-27T22:01:03.222Z,16.50
2018-08-27T22:03:36.847Z,16.50
2018-08-27T22:06:05.298Z,16.40
2018-08-27T22:08:33.724Z,16.40
2018-08-27T22:11:02.166Z,16.40
2018-08-27T22:13:30.605Z,16.40
2018-08-27T22:16:00.261Z,16.30
2018-08-27T22:18:28.688Z,16.30
2018-08-27T22:20:57.105Z,16.30
2018-08-27T22:23:25.526Z,16.30
2018-08-27T22:25:53.958Z,16.40
2018-08-27T22:28:22.353Z,16.40
2018-08-27T22:30:50.830Z,16.40
2018-08-27T22:33:19.266Z,16.40
2018-08-27T22:35:47.693Z,16.40
2018-08-27T22:38:16.111Z,16.40
2018-08-27T22:40:44.527Z,16.50
2018-08-27T22:43:12.992Z,16.50
2018-08-27T22:45:41.402Z,16.60
2018-08-27T22:48:09.794Z,16.60
2018-08-27T22:50:38.213Z,16.80
2018-08-27T22:53:06.636Z,16.80
2018-08-27T22:55:35.094Z,16.80
2018-08-27T22:58:03.498Z,16.90
2018-08-27T23:00:31.897Z,16.90
2018-08-27T23:03:05.549Z,16.90
2018-08-27T23:05:33.969Z,16.80
2018-08-27T23:08:02.393Z,16.80
2018-08-27T23:10:30.781Z,16.80
2018-08-27T23:12:59.225Z,16.80
2018-08-27T23:15:27.641Z,16.80
2018-08-27T23:17:56.081Z,16.90
2018-08-27T23:20:24.534Z,16.80
2018-08-27T23:22:52.962Z,16.80
2018-08-27T23:25:21.379Z,16.80
2018-08-27T23:27:49.801Z,16.80
2018-08-27T23:30:18.289Z,16.70
2018-08-27T23:32:46.710Z,16.70
2018-08-27T23:35:15.790Z,16.60
2018-08-27T23:37:44.607Z,16.60
2018-08-27T23:40:13.081Z,16.60
2018-08-27T23:42:41.509Z,16.50
2018-08-27T23:45:09.657Z,16.50
2018-08-27T23:47:38.090Z,16.50
2018-08-27T23:50:06.617Z,16.50
2018-08-27T23:52:35.084Z,16.60
2018-08-27T23:55:03.535Z,16.60
2018-08-27T23:57:31.987Z,16.60
